createdAt,value
2023-01-23T00:00:45.998Z,101666.80
2023-01-23T00:01:48.893Z,101672.17
2023-01-23T00:02:52.366Z,101677.53
2023-01-23T00:03:55.152Z,101680.22
2023-01-23T00:04:57.554Z,101670.41
2023-01-23T00:07:14.956Z,101669.91
2023-01-23T00:08:17.172Z,101673.09
2023-01-23T00:09:19.585Z,101673.95
2023-01-23T00:10:22.033Z,101680.28
2023-01-23T00:11:26.311Z,101677.53
2023-01-23T00:12:30.240Z,101677.53
2023-01-23T00:13:33.966Z,101675.70
2023-01-23T00:14:36.899Z,101681.08
2023-01-23T00:15:39.653Z,101674.84
2023-01-23T00:16:43.667Z,101675.70
2023-01-23T00:17:48.176Z,101678.39
2023-01-23T00:18:51.551Z,101673.92
2023-01-23T00:19:55.437Z,101673.03
2023-01-23T00:20:58.197Z,101670.34
2023-01-23T00:22:01.277Z,101671.23
2023-01-23T00:23:03.866Z,101672.95
2023-01-23T00:24:07.133Z,101669.41
2023-01-23T00:25:10.627Z,101670.27
2023-01-23T00:26:16.430Z,101670.27
2023-01-23T00:27:19.297Z,101664.91
2023-01-23T00:28:21.750Z,101667.59
2023-01-23T00:29:24.069Z,101667.59
2023-01-23T00:30:28.118Z,101664.05
2023-01-23T00:31:32.858Z,101666.73
2023-01-23T00:32:35.920Z,101664.05
2023-01-23T00:33:39.607Z,101674.78
2023-01-23T00:34:42.956Z,101670.27
2023-01-23T00:35:45.226Z,101667.55
2023-01-23T00:36:48.166Z,101670.27
2023-01-23T00:37:50.671Z,101670.23
2023-01-23T00:38:53.510Z,101680.03
2023-01-23T00:39:55.732Z,101678.20
2023-01-23T00:40:58.375Z,101675.59
2023-01-23T00:42:02.075Z,101672.91
2023-01-23T00:43:06.497Z,101679.09
2023-01-23T00:44:09.907Z,101679.09
2023-01-23T00:45:12.981Z,101672.84
2023-01-23T00:46:15.571Z,101679.09
2023-01-23T00:47:17.985Z,101672.84
2023-01-23T00:48:20.511Z,101672.84
2023-01-23T00:49:24.735Z,101672.84
2023-01-23T00:50:28.897Z,101670.16
2023-01-23T00:51:32.381Z,101677.27
2023-01-23T00:52:35.001Z,101674.59
2023-01-23T00:53:37.418Z,101676.42
2023-01-23T00:54:39.994Z,101673.73
2023-01-23T00:55:42.398Z,101673.80
2023-01-23T00:56:45.307Z,101669.30
2023-01-23T00:57:47.824Z,101676.42
2023-01-23T00:58:51.926Z,101677.34
2023-01-23T00:59:55.251Z,101673.73
2023-01-23T01:00:58.917Z,101678.20
2023-01-23T01:02:01.524Z,101676.42
2023-01-23T01:03:04.853Z,101673.80
2023-01-23T01:04:08.455Z,101674.66
2023-01-23T01:05:11.788Z,101664.87
2023-01-23T01:06:14.663Z,101669.30
2023-01-23T01:07:17.087Z,101674.66
2023-01-23T01:08:20.669Z,101671.98
2023-01-23T01:09:24.328Z,101672.84
2023-01-23T01:10:28.920Z,101674.66
2023-01-23T01:11:31.663Z,101675.52
2023-01-23T01:12:35.455Z,101677.34
2023-01-23T01:13:38.997Z,101682.72
2023-01-23T01:14:42.072Z,101674.66
2023-01-23T01:15:45.364Z,101666.62
2023-01-23T01:16:48.523Z,101671.98
2023-01-23T01:17:53.212Z,101677.34
2023-01-23T01:18:56.012Z,101673.80
2023-01-23T01:19:58.725Z,101670.23
2023-01-23T01:21:01.260Z,101677.34
2023-01-23T01:22:04.427Z,101674.66
2023-01-23T01:23:06.869Z,101675.59
2023-01-23T01:24:10.844Z,101674.66
2023-01-23T01:25:13.564Z,101674.66
2023-01-23T01:26:17.901Z,101672.91
2023-01-23T01:27:20.311Z,101680.03
2023-01-23T01:28:22.829Z,101678.20
2023-01-23T01:29:26.393Z,101669.30
2023-01-23T01:30:30.251Z,101674.66
2023-01-23T01:31:33.064Z,101675.52
2023-01-23T01:32:39.476Z,101671.98
2023-01-23T01:33:43.003Z,101672.84
2023-01-23T01:34:46.089Z,101676.42
2023-01-23T01:35:48.478Z,101673.73
2023-01-23T01:36:51.273Z,101671.91
2023-01-23T01:37:54.842Z,101663.00
2023-01-23T01:38:57.352Z,101671.05
2023-01-23T01:40:01.026Z,101665.69
2023-01-23T01:41:04.255Z,101668.38
2023-01-23T01:42:08.755Z,101669.23
2023-01-23T01:43:20.818Z,101665.69
2023-01-23T01:44:23.891Z,101665.69
2023-01-23T01:46:03.429Z,101673.73
2023-01-23T01:47:06.229Z,101665.69
2023-01-23T01:48:09.591Z,101664.80
2023-01-23T01:49:23.657Z,101658.57
2023-01-23T01:50:26.705Z,101665.76
2023-01-23T01:51:32.865Z,101664.01
2023-01-23T01:52:35.448Z,101658.64
2023-01-23T01:53:37.872Z,101659.50
2023-01-23T01:54:55.830Z,101653.28
2023-01-23T01:55:58.550Z,101658.64
2023-01-23T01:57:23.532Z,101655.07
2023-01-23T01:58:26.159Z,101658.69
2023-01-23T03:54:14.329Z,101689.88
2023-01-23T03:55:17.248Z,101693.66
2023-01-23T03:56:19.931Z,101685.38
2023-01-23T03:57:22.620Z,101686.88
2023-01-23T03:58:33.568Z,101693.66
2023-01-23T03:59:36.188Z,101688.82
2023-01-23T04:00:39.759Z,101685.77
2023-01-23T04:01:42.720Z,101693.33
2023-01-23T04:02:47.003Z,101688.48
2023-01-23T04:03:50.953Z,101691.73
2023-01-23T04:04:53.407Z,101694.84
2023-01-23T04:05:58.012Z,101694.47
2023-01-23T04:07:01.185Z,101691.39
2023-01-23T04:08:04.631Z,101690.08
2023-01-23T04:09:07.273Z,101700.40
2023-01-23T04:10:13.251Z,101695.64
2023-01-23T04:11:16.469Z,101698.84
2023-01-23T04:12:19.169Z,101704.75
2023-01-23T04:13:23.444Z,101700.91
2023-01-23T04:14:26.807Z,101701.48
2023-01-23T04:15:33.097Z,101694.95
2023-01-23T04:16:35.860Z,101691.95
2023-01-23T04:17:42.201Z,101691.73
2023-01-23T04:18:44.365Z,101688.80
2023-01-23T04:19:47.437Z,101691.25
2023-01-23T04:20:50.827Z,101696.34
2023-01-23T04:21:53.236Z,101692.60
2023-01-23T04:22:56.371Z,101693.23
2023-01-23T04:23:59.358Z,101693.06
2023-01-23T04:25:02.745Z,101695.58
2023-01-23T04:26:05.618Z,101690.08
2023-01-23T04:27:08.243Z,101691.70
2023-01-23T04:28:10.860Z,101691.50
2023-01-23T04:29:13.617Z,101700.16
2023-01-23T04:30:17.635Z,101700.16
2023-01-23T04:31:22.378Z,101695.55
2023-01-23T04:33:30.430Z,101697.10
2023-01-23T04:36:39.057Z,101704.80
2023-01-23T04:37:41.460Z,101706.48
2023-01-23T04:38:44.122Z,101703.73
2023-01-23T04:39:51.105Z,101708.95
2023-01-23T04:40:54.345Z,101712.45
2023-01-23T04:41:56.879Z,101707.09
2023-01-23T04:43:04.227Z,101705.20
2023-01-23T04:44:20.641Z,101700.73
2023-01-23T04:47:05.052Z,101705.50
2023-01-23T04:48:07.929Z,101706.81
2023-01-23T04:49:11.904Z,101713.93
2023-01-23T04:50:17.448Z,101706.75
2023-01-23T04:51:22.002Z,101712.93
2023-01-23T04:52:26.270Z,101705.75
2023-01-23T04:53:31.951Z,101715.55
2023-01-23T04:54:39.583Z,101711.93
2023-01-23T04:55:42.124Z,101710.97
2023-01-23T04:56:46.292Z,101714.55
2023-01-23T04:57:51.296Z,101716.30
2023-01-23T04:58:55.667Z,101718.02
2023-01-23T05:00:00.457Z,101717.16
2023-01-23T05:01:04.728Z,101710.86
2023-01-23T05:02:09.170Z,101709.18
2023-01-23T05:03:14.464Z,101719.70
2023-01-23T05:04:18.778Z,101717.91
2023-01-23T05:05:21.536Z,101716.08
2023-01-23T05:06:25.792Z,101716.08
2023-01-23T05:07:30.055Z,101718.77
2023-01-23T05:08:35.314Z,101721.37
2023-01-23T05:09:40.019Z,101718.70
2023-01-23T05:10:43.606Z,101716.02
2023-01-23T05:11:46.620Z,101715.08
2023-01-23T05:12:49.630Z,101722.20
2023-01-23T05:13:53.053Z,101729.36
2023-01-23T05:14:57.327Z,101719.52
2023-01-23T05:15:59.846Z,101728.39
2023-01-23T05:17:02.754Z,101727.49
2023-01-23T05:18:07.002Z,101729.25
2023-01-23T05:19:11.635Z,101731.92
2023-01-23T05:20:14.578Z,101733.75
2023-01-23T05:21:17.489Z,101735.50
2023-01-23T05:22:22.108Z,101732.82
2023-01-23T05:23:24.937Z,101741.73
2023-01-23T05:24:29.281Z,101738.11
2023-01-23T05:25:32.051Z,101740.80
2023-01-23T05:26:35.227Z,101737.22
2023-01-23T05:27:39.816Z,101739.86
2023-01-23T05:28:43.679Z,101742.55
2023-01-23T05:29:46.583Z,101747.91
2023-01-23T05:30:51.378Z,101739.80
2023-01-23T05:31:59.015Z,101746.88
2023-01-23T05:33:13.254Z,101744.20
2023-01-23T05:34:18.667Z,101742.41
2023-01-23T05:35:21.157Z,101742.41
2023-01-23T05:36:24.869Z,101742.41
2023-01-23T05:37:29.125Z,101744.16
2023-01-23T05:38:33.952Z,101744.16
2023-01-23T05:39:36.843Z,101744.16
2023-01-23T05:40:39.702Z,101748.56
2023-01-23T05:42:58.503Z,101741.87
2023-01-23T05:44:19.298Z,101754.89
2023-01-23T05:45:26.441Z,101750.45
2023-01-23T05:46:29.181Z,101754.92
2023-01-23T05:50:43.020Z,101755.82
2023-01-23T05:58:15.761Z,101752.20
2023-01-23T05:59:39.244Z,101757.58
2023-01-23T06:02:15.736Z,101757.08
2023-01-23T06:03:29.305Z,101753.14
2023-01-23T06:04:36.263Z,101764.80
2023-01-23T06:05:41.101Z,101762.12
2023-01-23T06:06:45.829Z,101767.48
2023-01-23T06:07:48.496Z,101769.30
2023-01-23T06:08:51.303Z,101771.09
2023-01-23T06:09:55.881Z,101769.37
2023-01-23T06:10:58.981Z,101771.09
2023-01-23T06:12:01.851Z,101764.87
2023-01-23T06:13:06.055Z,101762.36
2023-01-23T06:14:08.684Z,101762.36
2023-01-23T06:15:12.175Z,101764.87
2023-01-23T06:16:14.668Z,101772.05
2023-01-23T06:17:17.447Z,101764.80
2023-01-23T06:18:21.245Z,101779.07
2023-01-23T06:19:24.733Z,101777.28
2023-01-23T06:20:27.190Z,101772.78
2023-01-23T06:21:30.882Z,101768.30
2023-01-23T06:22:33.330Z,101766.48
2023-01-23T06:23:40.199Z,101774.45
2023-01-23T06:24:45.735Z,101776.21
2023-01-23T06:25:49.355Z,101767.48
2023-01-23T06:26:52.310Z,101767.48
2023-01-23T06:27:55.112Z,101779.76
2023-01-23T06:28:58.853Z,101776.21
2023-01-23T06:30:01.316Z,101777.97
2023-01-23T06:31:05.919Z,101782.37
2023-01-23T06:32:28.474Z,101782.37
2023-01-23T06:33:30.967Z,101775.21
2023-01-23T06:34:33.495Z,101771.64
2023-01-23T06:35:38.542Z,101783.26
2023-01-23T06:36:41.682Z,101785.05
2023-01-23T06:37:44.234Z,101782.37
2023-01-23T06:38:50.186Z,101783.33
2023-01-23T06:39:56.067Z,101773.45
2023-01-23T06:40:59.572Z,101778.83
2023-01-23T06:42:06.030Z,101777.07
2023-01-23T06:43:10.737Z,101779.69
2023-01-23T06:44:13.272Z,101787.73
2023-01-23T06:45:16.267Z,101783.33
2023-01-23T06:46:20.362Z,101786.95
2023-01-23T06:47:23.491Z,101778.89
2023-01-23T06:48:27.850Z,101787.80
2023-01-23T06:49:30.527Z,101786.02
2023-01-23T06:50:33.302Z,101788.70
2023-01-23T06:51:35.724Z,101794.92
2023-01-23T06:52:39.437Z,101793.10
2023-01-23T06:53:41.900Z,101792.23
2023-01-23T06:54:45.230Z,101800.29
2023-01-23T06:55:47.817Z,101790.41
2023-01-23T06:56:51.239Z,101788.70
2023-01-23T06:57:55.415Z,101788.70
2023-01-23T06:58:58.329Z,101793.10
2023-01-23T07:00:05.560Z,101793.10
2023-01-23T07:01:15.720Z,101792.23
2023-01-23T07:02:38.482Z,101791.31
2023-01-23T07:03:44.281Z,101796.75
2023-01-23T07:04:47.175Z,101792.31
2023-01-23T07:05:50.061Z,101794.06
2023-01-23T07:06:53.086Z,101777.53
2023-01-23T07:07:55.771Z,101777.53
2023-01-23T07:08:58.295Z,101797.67
2023-01-23T07:10:00.716Z,101797.67
2023-01-23T07:11:05.027Z,101795.86
2023-01-23T07:12:08.750Z,101797.67
2023-01-23T07:13:12.337Z,101806.59
2023-01-23T07:14:15.682Z,101797.67
2023-01-23T07:15:19.799Z,101799.43
2023-01-23T07:16:24.760Z,101794.06
2023-01-23T07:17:27.494Z,101800.29
2023-01-23T07:18:31.968Z,101809.27
2023-01-23T07:19:35.799Z,101802.97
2023-01-23T07:20:41.605Z,101807.48
2023-01-23T07:21:44.582Z,101811.02
2023-01-23T07:22:47.559Z,101806.52
2023-01-23T07:23:50.547Z,101811.02
2023-01-23T07:24:54.686Z,101807.48
2023-01-23T07:26:02.971Z,101818.20
2023-01-23T07:27:05.443Z,101817.31
2023-01-23T07:28:08.629Z,101811.02
2023-01-23T07:29:12.108Z,101811.88
2023-01-23T07:30:15.063Z,101820.82
2023-01-23T07:31:18.004Z,101815.45
2023-01-23T07:32:21.025Z,101809.20
2023-01-23T07:33:24.205Z,101814.56
2023-01-23T07:34:27.740Z,101815.45
2023-01-23T07:35:31.297Z,101812.77
2023-01-23T07:36:34.027Z,101809.20
2023-01-23T07:37:36.430Z,101819.93
2023-01-23T07:38:39.279Z,101818.07
2023-01-23T07:39:42.008Z,101813.63
2023-01-23T07:40:44.801Z,101826.12
2023-01-23T07:41:47.611Z,101814.50
2023-01-23T07:42:50.086Z,101823.44
2023-01-23T07:43:52.763Z,101827.84
2023-01-23T07:44:55.616Z,101818.93
2023-01-23T07:47:12.061Z,101823.77
2023-01-23T07:48:14.850Z,101827.84
2023-01-23T07:49:17.918Z,101829.66
2023-01-23T07:50:21.421Z,101829.66
2023-01-23T07:51:24.504Z,101834.17
2023-01-23T07:52:27.475Z,101827.05
2023-01-23T07:53:30.166Z,101830.52
2023-01-23T07:54:32.778Z,101833.27
2023-01-23T07:55:37.683Z,101821.00
2023-01-23T07:56:40.713Z,101821.00
2023-01-23T07:57:43.442Z,101836.85
2023-01-23T07:58:50.589Z,101834.17
2023-01-23T07:59:52.938Z,101839.53
2023-01-23T08:00:55.382Z,101836.85
2023-01-23T08:01:58.723Z,101839.53
2023-01-23T08:03:03.486Z,101844.91
2023-01-23T08:04:06.160Z,101837.78
2023-01-23T08:05:10.034Z,101840.47
2023-01-23T08:06:13.428Z,101846.69
2023-01-23T08:07:15.862Z,101840.47
2023-01-23T08:08:18.941Z,101842.29
2023-01-23T08:09:21.358Z,101842.29
2023-01-23T08:10:24.482Z,101850.34
2023-01-23T08:11:27.713Z,101850.34
2023-01-23T08:12:30.173Z,101842.29
2023-01-23T08:13:33.860Z,101844.08
2023-01-23T08:14:36.289Z,101847.66
2023-01-23T08:15:38.742Z,101845.83
2023-01-23T08:16:41.384Z,101842.29
2023-01-23T08:17:44.651Z,101842.29
2023-01-23T08:18:47.012Z,101843.22
2023-01-23T08:19:49.692Z,101844.08
2023-01-23T08:20:56.129Z,101845.04
2023-01-23T08:21:59.266Z,101844.97
2023-01-23T08:23:01.715Z,101853.02
2023-01-23T08:24:05.640Z,101849.45
2023-01-23T08:25:09.911Z,101852.12
2023-01-23T08:26:15.519Z,101851.27
2023-01-23T08:27:18.266Z,101848.58
2023-01-23T08:28:21.404Z,101853.09
2023-01-23T08:29:24.544Z,101854.88
2023-01-23T08:30:27.207Z,101859.31
2023-01-23T08:31:43.635Z,101854.02
2023-01-23T08:32:47.804Z,101849.58
2023-01-23T08:33:51.969Z,101857.63
2023-01-23T08:34:55.294Z,101855.88
2023-01-23T08:35:58.270Z,101850.51
2023-01-23T08:37:01.530Z,101855.02
2023-01-23T08:38:04.766Z,101847.83
2023-01-23T08:39:09.282Z,101853.27
2023-01-23T08:40:13.222Z,101854.16
2023-01-23T08:41:16.085Z,101849.72
2023-01-23T08:42:18.615Z,101851.50
2023-01-23T08:43:21.259Z,101845.28
2023-01-23T08:44:23.938Z,101852.40
2023-01-23T08:45:27.456Z,101856.87
2023-01-23T08:46:31.286Z,101854.19
2023-01-23T08:47:35.853Z,101850.64
2023-01-23T08:48:38.507Z,101848.03
2023-01-23T08:49:41.389Z,101848.96
2023-01-23T08:50:44.167Z,101851.71
2023-01-23T08:51:47.157Z,101849.09
2023-01-23T08:52:49.713Z,101848.20
2023-01-23T08:53:52.735Z,101857.17
2023-01-23T08:54:56.127Z,101851.81
2023-01-23T08:56:07.153Z,101845.62
2023-01-23T08:57:10.029Z,101850.98
2023-01-23T08:58:13.635Z,101849.27
2023-01-23T08:59:16.878Z,101847.52
2023-01-23T09:00:21.460Z,101852.02
2023-01-23T09:01:26.148Z,101852.95
2023-01-23T09:02:29.182Z,101847.64
2023-01-23T09:03:34.870Z,101847.72
2023-01-23T09:04:37.840Z,101851.26
2023-01-23T09:05:41.777Z,101846.82
2023-01-23T09:06:44.984Z,101853.08
2023-01-23T09:07:47.866Z,101852.19
2023-01-23T09:08:50.833Z,101853.11
2023-01-23T09:09:54.530Z,101846.03
2023-01-23T09:11:02.227Z,101847.81
2023-01-23T09:12:05.098Z,101849.70
2023-01-23T09:13:09.504Z,101845.34
2023-01-23T09:14:11.964Z,101850.70
2023-01-23T09:15:14.552Z,101848.08
2023-01-23T09:16:17.899Z,101848.08
2023-01-23T09:17:20.266Z,101847.22
2023-01-23T09:18:24.376Z,101857.05
2023-01-23T09:19:29.028Z,101855.30
2023-01-23T09:20:31.890Z,101847.25
2023-01-23T09:21:34.674Z,101859.80
2023-01-23T09:22:40.067Z,101848.22
2023-01-23T09:23:44.180Z,101850.00
2023-01-23T09:24:47.279Z,101855.37
2023-01-23T09:25:49.665Z,101862.55
2023-01-23T09:26:52.078Z,101857.25
2023-01-23T09:27:55.629Z,101853.67
2023-01-23T09:28:57.995Z,101848.38
2023-01-23T09:30:00.887Z,101851.06
2023-01-23T09:31:06.740Z,101846.59
2023-01-23T09:32:10.027Z,101847.45
2023-01-23T09:33:13.213Z,101856.36
2023-01-23T09:34:17.347Z,101849.27
2023-01-23T14:12:08.860Z,101822.23
2023-01-23T14:13:16.469Z,101825.95
2023-01-23T14:14:37.801Z,101823.94
2023-01-23T14:16:00.257Z,101820.98
2023-01-23T14:17:04.490Z,101821.47
2023-01-23T14:18:25.597Z,101822.78
2023-01-23T14:19:31.537Z,101819.70
2023-01-23T14:20:36.199Z,101830.77
2023-01-23T14:21:41.622Z,101822.31
2023-01-23T14:22:45.141Z,101821.98
2023-01-23T14:23:57.275Z,101822.48
2023-01-23T14:25:00.983Z,101830.16
2023-01-23T14:26:05.405Z,101821.78
2023-01-23T14:27:30.175Z,101825.02
2023-01-23T14:28:34.521Z,101817.58
2023-01-23T14:29:38.144Z,101818.05
2023-01-23T14:30:43.572Z,101824.87
2023-01-23T14:33:08.008Z,101831.94
2023-01-23T14:34:20.203Z,101824.09
2023-01-23T14:35:30.793Z,101822.06
2023-01-23T14:36:35.941Z,101817.33
2023-01-23T14:37:44.556Z,101820.66
2023-01-23T14:38:53.100Z,101824.92
2023-01-23T14:40:01.978Z,101825.63
2023-01-23T14:41:06.298Z,101822.83
2023-01-23T14:42:23.324Z,101834.19
2023-01-23T14:44:37.270Z,101827.59
2023-01-23T14:45:40.263Z,101826.61
2023-01-23T14:46:44.310Z,101830.91
2023-01-23T14:47:56.164Z,101824.57
2023-01-23T14:48:53.092Z,101842.34
2023-01-23T14:49:56.020Z,101830.66
2023-01-23T14:52:30.151Z,101830.86
2023-01-23T14:53:32.761Z,101832.97
2023-01-23T14:54:36.805Z,101830.22
2023-01-23T14:55:41.088Z,101830.16
2023-01-23T14:56:45.759Z,101834.53
2023-01-23T14:57:49.688Z,101834.47
2023-01-23T14:58:52.267Z,101830.00
2023-01-23T14:59:57.867Z,101828.18
2023-01-23T15:01:02.123Z,101829.08
2023-01-23T15:02:25.423Z,101829.08
2023-01-23T15:03:45.664Z,101837.11
2023-01-23T15:05:18.067Z,101830.80
2023-01-23T15:06:21.126Z,101832.67
2023-01-23T15:07:24.136Z,101830.92
2023-01-23T15:09:46.299Z,101830.44
2023-01-23T15:10:48.959Z,101831.78
2023-01-23T15:11:53.993Z,101836.22
2023-01-23T15:13:05.408Z,101832.61
2023-01-23T15:15:29.531Z,101835.53
2023-01-23T15:16:38.269Z,101835.09
2023-01-23T15:17:43.225Z,101837.71
2023-01-23T15:18:57.885Z,101839.41
2023-01-23T15:20:03.180Z,101837.48
2023-01-23T15:21:06.577Z,101837.42
2023-01-23T15:22:21.241Z,101845.33
2023-01-23T15:24:50.835Z,101834.88
2023-01-23T15:26:19.968Z,101841.53
2023-01-23T15:27:33.854Z,101845.97
2023-01-23T15:28:50.898Z,101845.90
2023-01-23T15:30:14.805Z,101837.79
2023-01-23T15:31:30.240Z,101842.16
2023-01-23T15:32:35.041Z,101847.45
2023-01-23T15:33:40.121Z,101845.63
2023-01-23T15:34:46.412Z,101846.53
2023-01-23T15:35:49.314Z,101846.46
2023-01-23T15:37:03.781Z,101844.64
2023-01-23T15:38:08.703Z,101839.21
2023-01-23T15:39:23.677Z,101849.91
2023-01-23T15:40:29.117Z,101851.63
2023-01-23T15:41:48.883Z,101843.52
2023-01-23T15:43:18.663Z,101847.95
2023-01-23T15:44:22.665Z,101853.25
2023-01-23T15:45:25.099Z,101848.84
2023-01-23T15:46:27.587Z,101850.56
2023-01-23T15:47:31.866Z,101843.41
2023-01-23T15:48:35.533Z,101843.41
2023-01-23T15:49:39.975Z,101858.55
2023-01-23T15:50:44.387Z,101849.57
2023-01-23T15:51:48.459Z,101854.01
2023-01-23T15:52:52.140Z,101847.72
2023-01-23T15:53:55.069Z,101855.69
2023-01-23T15:55:13.711Z,101852.05
2023-01-23T15:56:20.128Z,101859.17
2023-01-23T15:57:22.510Z,101857.37
2023-01-23T15:58:25.137Z,101858.17
2023-01-23T15:59:28.351Z,101850.13
2023-01-23T16:00:31.676Z,101857.17
2023-01-23T16:01:34.086Z,101857.17
2023-01-23T16:02:44.200Z,101851.81
2023-01-23T16:03:42.605Z,101859.83
2023-01-23T16:04:46.950Z,101855.33
2023-01-23T16:05:50.542Z,101857.08
2023-01-23T16:06:53.051Z,101854.39
2023-01-23T16:07:56.292Z,101855.25
2023-01-23T16:09:05.275Z,101858.83
2023-01-23T16:10:20.767Z,101856.15
2023-01-23T16:11:23.649Z,101858.83
2023-01-23T16:12:28.227Z,101849.85
2023-01-23T16:13:57.734Z,101857.83
2023-01-23T16:15:02.823Z,101855.15
2023-01-23T16:16:16.257Z,101857.77
2023-01-23T16:17:18.891Z,101854.19
2023-01-23T16:18:23.476Z,101859.52
2023-01-23T16:19:25.987Z,101852.33
2023-01-23T16:20:30.898Z,101852.33
2023-01-23T16:21:33.707Z,101856.84
2023-01-23T16:22:36.275Z,101856.77
2023-01-23T16:23:47.290Z,101853.19
2023-01-23T16:24:44.688Z,101857.70
2023-01-23T16:26:00.354Z,101845.34
2023-01-23T16:27:04.030Z,101845.34
2023-01-23T16:28:22.043Z,101852.27
2023-01-23T16:29:31.025Z,101860.31
2023-01-23T16:30:34.024Z,101863.00
2023-01-23T16:31:37.585Z,101862.06
2023-01-23T16:32:40.396Z,101861.24
2023-01-23T16:33:50.224Z,101858.48
2023-01-23T16:34:54.218Z,101860.31
2023-01-23T16:35:57.743Z,101865.68
2023-01-23T16:37:01.132Z,101862.14
2023-01-23T16:38:04.458Z,101865.68
2023-01-23T16:40:22.726Z,101852.67
2023-01-23T16:41:25.251Z,101856.70
2023-01-23T16:42:28.769Z,101863.00
2023-01-23T16:43:32.029Z,101861.17
2023-01-23T16:44:34.890Z,101865.61
2023-01-23T16:45:38.047Z,101864.75
2023-01-23T16:46:40.719Z,101871.87
2023-01-23T16:47:45.040Z,101869.19
2023-01-23T16:48:50.073Z,101873.59
2023-01-23T16:49:54.505Z,101867.36
2023-01-23T16:52:14.467Z,101857.91
2023-01-23T16:53:26.792Z,101867.30
2023-01-23T16:54:29.232Z,101875.34
2023-01-23T16:56:53.212Z,101867.70
2023-01-23T16:57:55.978Z,101869.05
2023-01-23T16:58:58.419Z,101876.14
2023-01-23T17:00:01.940Z,101867.23
2023-01-23T17:01:08.713Z,101877.03
2023-01-23T17:03:29.923Z,101868.53
2023-01-23T17:04:33.965Z,101874.28
2023-01-23T17:05:37.084Z,101873.42
2023-01-23T17:06:40.697Z,101874.28
2023-01-23T17:07:44.084Z,101876.10
2023-01-23T17:08:47.847Z,101871.59
2023-01-23T17:09:52.244Z,101876.03
2023-01-23T17:11:00.231Z,101875.14
2023-01-23T17:12:03.564Z,101869.77
2023-01-23T17:13:05.933Z,101874.14
2023-01-23T17:14:22.275Z,101874.14
2023-01-23T17:15:27.585Z,101868.78
2023-01-23T17:16:30.136Z,101875.03
2023-01-23T17:17:34.890Z,101881.27
2023-01-23T17:18:37.609Z,101879.51
2023-01-23T17:19:40.977Z,101887.48
2023-01-23T17:20:43.992Z,101885.70
2023-01-23T17:21:46.789Z,101883.95
2023-01-23T17:22:49.216Z,101874.14
2023-01-23T17:23:52.797Z,101875.89
2023-01-23T17:24:58.515Z,101874.00
2023-01-23T17:26:01.884Z,101882.05
2023-01-23T17:27:05.669Z,101874.97
2023-01-23T17:28:13.051Z,101883.88
2023-01-23T17:29:14.528Z,101877.65
2023-01-23T17:31:33.207Z,101885.22
2023-01-23T17:32:36.981Z,101880.33
2023-01-23T17:33:40.391Z,101886.56
2023-01-23T17:34:49.850Z,101883.02
2023-01-23T17:35:51.087Z,101879.38
2023-01-23T17:38:34.373Z,101882.88
2023-01-23T17:39:36.836Z,101881.98
2023-01-23T17:40:42.172Z,101890.93
2023-01-23T17:41:45.055Z,101883.74
2023-01-23T17:42:48.138Z,101878.38
2023-01-23T17:43:52.159Z,101874.83
2023-01-23T17:44:55.225Z,101873.08
2023-01-23T17:45:58.859Z,101872.14
2023-01-23T17:47:03.361Z,101879.27
2023-01-23T17:48:11.036Z,101876.62
2023-01-23T17:49:20.754Z,101879.27
2023-01-23T17:50:25.041Z,101875.69
2023-01-23T21:44:19.236Z,101857.50
2023-01-23T21:45:22.201Z,101857.70
2023-01-23T21:46:25.224Z,101860.11
2023-01-23T21:47:27.769Z,101858.09
2023-01-23T21:48:32.356Z,101855.08
2023-01-23T21:49:37.397Z,101853.89
2023-01-23T21:50:41.256Z,101855.24
2023-01-23T21:51:45.721Z,101855.79
2023-01-23T21:52:48.036Z,101852.70
2023-01-23T21:53:50.726Z,101853.25
2023-01-23T21:54:56.063Z,101859.05
2023-01-23T21:55:58.378Z,101850.68
2023-01-23T21:57:01.137Z,101858.29
2023-01-23T21:58:03.959Z,101853.50
2023-01-23T21:59:06.677Z,101854.02
2023-01-23T22:00:29.394Z,101858.16
2023-01-23T22:01:33.543Z,101856.95
2023-01-23T22:02:37.117Z,101856.57
2023-01-23T22:03:41.101Z,101862.52
2023-01-23T22:04:44.506Z,101854.25
2023-01-23T22:05:48.636Z,101849.55
2023-01-23T22:06:54.935Z,101852.88
2023-01-23T22:07:57.800Z,101849.02
2023-01-23T22:09:01.043Z,101855.03
2023-01-23T22:10:06.431Z,101846.80
2023-01-23T22:11:09.537Z,101849.36
2023-01-23T22:12:11.994Z,101846.42
2023-01-23T22:13:15.975Z,101848.92
2023-01-23T22:14:19.993Z,101847.70
2023-01-23T22:15:23.851Z,101847.70
2023-01-23T22:16:46.410Z,101845.69
2023-01-23T22:17:32.704Z,101855.36
2023-01-23T22:18:35.085Z,101849.90
2023-01-23T22:19:37.889Z,101847.09
2023-01-23T22:20:40.332Z,101853.18
2023-01-23T22:21:45.443Z,101848.64
2023-01-23T22:22:49.729Z,101854.77
2023-01-23T22:23:52.179Z,101853.75
2023-01-23T22:24:55.291Z,101853.64
2023-01-23T22:26:00.399Z,101855.30
2023-01-23T22:27:03.536Z,101848.95
2023-01-23T22:28:05.895Z,101854.20
2023-01-23T22:29:11.559Z,101848.84
2023-01-23T22:30:14.737Z,101855.00
2023-01-23T22:31:18.458Z,101857.62
2023-01-23T22:32:22.141Z,101856.69
2023-01-23T22:33:32.861Z,101852.19
2023-01-23T22:34:30.047Z,101850.33
2023-01-23T22:35:38.293Z,101849.37
2023-01-23T22:36:41.328Z,101852.02
2023-01-23T22:37:43.907Z,101836.78
2023-01-23T22:38:53.155Z,101849.27
2023-01-23T22:39:55.701Z,101845.62
2023-01-23T22:41:00.240Z,101852.74
2023-01-23T22:42:03.686Z,101844.70
2023-01-23T22:43:06.755Z,101846.45
2023-01-23T22:44:10.327Z,101842.02
2023-01-23T22:45:12.973Z,101842.84
2023-01-23T22:46:18.241Z,101845.52
2023-01-23T22:47:20.717Z,101844.59
2023-01-23T22:48:24.119Z,101848.17
2023-01-23T22:49:26.567Z,101840.98
2023-01-23T22:50:28.984Z,101840.13
2023-01-23T22:51:31.901Z,101841.84
2023-01-23T22:52:37.383Z,101848.96
2023-01-23T22:53:39.979Z,101843.59
2023-01-23T22:54:43.028Z,101849.85
2023-01-23T22:55:46.032Z,101848.03
2023-01-23T22:56:49.390Z,101847.97
2023-01-23T22:57:52.686Z,101842.59
2023-01-23T22:58:55.654Z,101833.76
2023-01-23T22:59:57.972Z,101842.59
2023-01-23T23:01:00.956Z,101841.05
2023-01-23T23:02:03.714Z,101841.05
2023-01-23T23:03:06.037Z,101853.33
2023-01-23T23:04:08.935Z,101853.27
2023-01-23T23:05:12.334Z,101856.84
2023-01-23T23:06:16.510Z,101851.47
2023-01-23T23:07:18.940Z,101850.51
2023-01-23T23:08:21.247Z,101846.97
2023-01-23T23:09:37.451Z,101853.19
2023-01-23T23:10:40.099Z,101847.83
2023-01-23T23:11:43.498Z,101854.09
2023-01-23T23:12:47.095Z,101853.19
2023-01-23T23:13:49.586Z,101851.41
2023-01-23T23:14:52.735Z,101851.41
2023-01-23T23:15:56.349Z,101851.41
2023-01-23T23:17:00.449Z,101855.88
2023-01-23T23:18:03.412Z,101849.65
2023-01-23T23:19:06.161Z,101853.19